Time;durP1;ratioP1;P1;durP2;ratioP2;P2;SDS_P1;SDS_P2;PMS_P1;PMS_P2;Temp;Humidity;BMP_temperature;BMP_pressure;BME280_temperature;BME280_humidity;BME280_pressure;Samples;Min_cycle;Max_cycle;Signal;HPM_P1;HPM_P2
2023/08/20 00:00:00;;;;;;;10.55;5.93;;;;;;;19.80;100.00;102001.25;5040313;28;20065;-65
2023/08/20 00:02:31;;;;;;;10.38;5.97;;;;;;;19.87;100.00;101991.53;5044520;28;20493;-66
2023/08/20 00:04:58;;;;;;;9.73;5.85;;;;;;;19.92;100.00;101992.66;5038589;28;20404;-65
2023/08/20 00:07:25;;;;;;;12.80;6.43;;;;;;;19.96;100.00;102003.78;5053072;28;20139;-65
2023/08/20 00:09:51;;;;;;;9.63;5.90;;;;;;;20.01;100.00;102013.88;5026774;28;20045;-65
2023/08/20 00:12:18;;;;;;;12.93;6.15;;;;;;;20.04;100.00;102005.56;5034895;28;21886;-66
2023/08/20 00:14:58;;;;;;;9.63;5.80;;;;;;;20.08;100.00;102001.50;5046199;28;20153;-66
2023/08/20 00:17:26;;;;;;;10.68;6.10;;;;;;;20.09;100.00;102000.50;5043311;28;20076;-66
2023/08/20 00:19:54;;;;;;;13.25;6.53;;;;;;;20.09;100.00;102003.16;5047923;28;20053;-66
2023/08/20 00:22:25;;;;;;;9.75;5.30;;;;;;;20.08;100.00;101996.19;5041947;28;20098;-65
2023/08/20 00:24:53;;;;;;;8.98;5.18;;;;;;;20.08;100.00;101996.19;5045217;28;20052;-65
2023/08/20 00:27:20;;;;;;;;;;;;;;;20.04;100.00;101995.72;5047361;28;20053;-66
2023/08/20 00:29:46;;;;;;;9.88;5.82;;;;;;;19.99;100.00;101999.94;5043009;28;20015;-66
2023/08/20 00:32:15;;;;;;;10.88;6.35;;;;;;;19.96;100.00;101990.47;5050478;28;20124;-66
2023/08/20 00:34:41;;;;;;;9.70;6.45;;;;;;;19.88;100.00;101991.38;5040782;28;20137;-66
2023/08/20 00:37:08;;;;;;;10.73;6.32;;;;;;;19.81;100.00;101992.25;5048192;28;20053;-65
2023/08/20 00:39:34;;;;;;;12.75;5.90;;;;;;;19.77;100.00;101990.97;5040523;28;20049;-65
2023/08/20 00:42:01;;;;;;;15.05;6.10;;;;;;;19.72;100.00;101986.19;5022237;28;20084;-66
2023/08/20 00:44:27;;;;;;;8.85;5.28;;;;;;;19.69;100.00;101999.81;5038368;28;20140;-66
2023/08/20 00:46:55;;;;;;;12.43;6.18;;;;;;;19.68;100.00;102004.31;5040339;28;20080;-66
2023/08/20 00:49:22;;;;;;;12.57;5.60;;;;;;;19.66;100.00;102000.16;5055686;28;20045;-66
2023/08/20 00:51:50;;;;;;;11.80;5.80;;;;;;;19.61;100.00;102000.69;5036967;28;20045;-65
2023/08/20 00:54:16;;;;;;;9.57;5.82;;;;;;;19.55;100.00;102006.72;5043154;28;20060;-65
2023/08/20 00:56:44;;;;;;;9.75;6.07;;;;;;;19.51;100.00;102010.75;5037440;28;20053;-65
2023/08/20 00:59:11;;;;;;;12.88;6.15;;;;;;;19.47;100.00;102012.13;5045022;28;20580;-66
2023/08/20 01:01:38;;;;;;;10.63;5.68;;;;;;;19.44;100.00;102010.63;5052857;28;20041;-66
2023/08/20 01:04:04;;;;;;;10.23;6.50;;;;;;;19.41;100.00;102010.16;5035773;28;20069;-66
2023/08/20 01:06:44;;;;;;;12.45;6.38;;;;;;;19.41;100.00;102010.16;5047631;28;20122;-66
2023/08/20 01:09:29;;;;;;;10.57;6.35;;;;;;;19.39;100.00;102009.50;5045753;28;20076;-65
2023/08/20 01:11:59;;;;;;;11.07;6.85;;;;;;;19.35;100.00;102015.16;5052590;28;20123;-66
2023/08/20 01:14:26;;;;;;;11.20;6.47;;;;;;;19.32;100.00;102015.50;5046388;28;20105;-66
2023/08/20 01:16:52;;;;;;;13.80;6.40;;;;;;;19.28;100.00;102027.50;5055845;28;20132;-66
2023/08/20 01:19:21;;;;;;;9.88;6.30;;;;;;;19.27;100.00;102028.53;5045282;28;20045;-66
2023/08/20 01:22:25;;;;;;;11.75;6.55;;;;;;;19.32;100.00;102035.97;5043594;28;20048;-66
2023/08/20 01:25:16;;;;;;;12.40;6.85;;;;;;;19.35;100.00;102039.13;5043195;28;20140;-66
2023/08/20 01:27:51;;;;;;;10.20;6.20;;;;;;;19.38;100.00;102032.59;5021876;28;20106;-66
2023/08/20 01:30:20;;;;;;;11.40;6.45;;;;;;;19.40;100.00;102033.25;5052882;28;20092;-66
2023/08/20 01:32:50;;;;;;;12.18;6.35;;;;;;;19.41;100.00;102045.56;5034679;28;20073;-66
2023/08/20 01:35:17;;;;;;;11.75;6.65;;;;;;;19.44;100.00;102042.53;5049848;28;20435;-66
2023/08/20 01:37:44;;;;;;;15.57;7.23;;;;;;;19.48;100.00;102049.19;5022915;28;20049;-66
2023/08/20 01:40:11;;;;;;;11.23;6.82;;;;;;;19.54;100.00;102050.31;5052284;28;20162;-66
2023/08/20 01:42:39;;;;;;;12.90;6.72;;;;;;;19.58;100.00;102050.78;5039776;28;20166;-66
2023/08/20 01:45:07;;;;;;;12.80;7.10;;;;;;;19.58;100.00;102058.75;5044848;28;20183;-66
2023/08/20 01:47:33;;;;;;;9.93;6.25;;;;;;;19.58;100.00;102053.44;5037525;28;20129;-66
2023/08/20 01:50:01;;;;;;;10.82;6.57;;;;;;;19.60;100.00;102048.78;5033321;28;20052;-65
2023/08/20 01:52:31;;;;;;;12.82;7.00;;;;;;;19.61;100.00;102053.94;5055347;28;20044;-65
2023/08/20 01:54:58;;;;;;;11.07;5.97;;;;;;;19.62;100.00;102063.59;5036596;28;20052;-65
2023/08/20 01:57:24;;;;;;;10.95;6.35;;;;;;;19.61;100.00;102069.91;5044757;28;20087;-66
2023/08/20 01:59:51;;;;;;;10.43;6.18;;;;;;;19.61;100.00;102067.22;5044806;28;20083;-65
2023/08/20 02:02:17;;;;;;;8.82;6.05;;;;;;;19.57;100.00;102057.94;5019176;28;20080;-65
2023/08/20 02:04:43;;;;;;;14.20;6.78;;;;;;;19.54;100.00;102060.94;5053818;28;20505;-65
2023/08/20 02:07:10;;;;;;;9.98;7.20;;;;;;;19.49;100.00;102065.97;5047018;28;20049;-66
2023/08/20 02:09:37;;;;;;;10.73;6.30;;;;;;;19.50;100.00;102071.13;5046816;28;20737;-66
2023/08/20 02:12:04;;;;;;;11.75;6.85;;;;;;;19.46;100.00;102066.31;5042445;28;20049;-66
2023/08/20 02:14:34;;;;;;;11.50;7.18;;;;;;;19.45;100.00;102070.00;5038169;28;20049;-66
2023/08/20 02:17:02;;;;;;;14.35;7.10;;;;;;;19.46;100.00;102074.31;5034941;28;20122;-66
2023/08/20 02:19:28;;;;;;;12.18;6.78;;;;;;;19.45;100.00;102073.47;5044174;28;20040;-65
2023/08/20 02:21:55;;;;;;;10.13;6.72;;;;;;;19.43;100.00;102082.66;5048337;28;20076;-65
2023/08/20 02:24:22;;;;;;;12.80;7.20;;;;;;;19.41;100.00;102079.34;5045211;28;20049;-65
2023/08/20 02:26:48;;;;;;;13.60;7.13;;;;;;;19.40;100.00;102072.34;5050963;28;20145;-65
2023/08/20 02:29:15;;;;;;;13.45;7.57;;;;;;;19.36;100.00;102071.84;5042729;28;20111;-66
2023/08/20 02:31:41;;;;;;;12.65;7.40;;;;;;;19.35;100.00;102075.53;5041872;28;20106;-66
2023/08/20 02:34:08;;;;;;;12.90;7.35;;;;;;;19.33;100.00;102069.56;5051350;28;20140;-66
2023/08/20 02:36:34;;;;;;;12.40;7.40;;;;;;;19.30;100.00;102069.91;5045827;28;20106;-66
2023/08/20 02:39:01;;;;;;;12.10;7.15;;;;;;;19.27;100.00;102073.75;5050066;28;20095;-65
2023/08/20 02:41:27;;;;;;;11.38;7.55;;;;;;;19.22;100.00;102068.09;5044703;28;20647;-66
2023/08/20 02:43:53;;;;;;;11.38;6.70;;;;;;;19.19;100.00;102075.59;5035609;28;20056;-65
2023/08/20 02:46:20;;;;;;;12.10;6.07;;;;;;;19.16;100.00;102079.44;5037056;28;20070;-65
2023/08/20 02:48:46;;;;;;;12.70;7.20;;;;;;;19.15;100.00;102086.59;5045772;28;20172;-66
2023/08/20 02:51:13;;;;;;;12.93;6.82;;;;;;;19.12;100.00;102083.44;5041978;28;20067;-66
2023/08/20 02:53:39;;;;;;;17.38;7.43;;;;;;;19.12;100.00;102086.09;5035559;28;20060;-65
2023/08/20 02:56:06;;;;;;;12.73;7.40;;;;;;;19.09;100.00;102083.78;5024387;28;20088;-66
2023/08/20 02:58:32;;;;;;;13.45;7.82;;;;;;;19.05;100.00;102080.66;5037303;28;20104;-66
2023/08/20 03:00:59;;;;;;;15.18;7.85;;;;;;;19.04;100.00;102076.31;5039322;28;20132;-65
2023/08/20 03:03:25;;;;;;;9.88;7.40;;;;;;;19.05;100.00;102077.16;5035829;28;20056;-65
2023/08/20 03:05:52;;;;;;;12.90;6.65;;;;;;;19.06;100.00;102066.34;5043384;28;20770;-66
2023/08/20 03:08:18;;;;;;;17.15;8.35;;;;;;;19.03;100.00;102064.00;5046666;28;20056;-66
2023/08/20 03:10:45;;;;;;;12.25;7.22;;;;;;;19.02;100.00;102065.03;5038307;28;20102;-66
2023/08/20 03:13:11;;;;;;;11.95;7.70;;;;;;;19.03;100.00;102066.66;5042259;28;20087;-66
2023/08/20 03:15:38;;;;;;;9.32;6.50;;;;;;;19.04;100.00;102064.88;5034853;28;20357;-66
2023/08/20 03:18:05;;;;;;;11.98;7.65;;;;;;;18.99;100.00;102065.38;5043924;28;20147;-66
2023/08/20 03:20:32;;;;;;;11.25;7.90;;;;;;;18.95;100.00;102056.94;5036776;28;20697;-66
2023/08/20 03:22:58;;;;;;;12.93;7.88;;;;;;;18.93;100.00;102052.75;5043837;28;20546;-66
2023/08/20 03:25:25;;;;;;;10.88;6.82;;;;;;;18.90;100.00;102051.28;5039222;28;20166;-66
2023/08/20 03:27:52;;;;;;;11.65;7.40;;;;;;;18.87;100.00;102043.63;5029303;28;20048;-65
2023/08/20 03:30:18;;;;;;;13.90;7.25;;;;;;;18.81;100.00;102041.66;5040655;28;20131;-66
2023/08/20 03:32:45;;;;;;;10.88;7.45;;;;;;;18.75;100.00;102050.28;5040033;28;20052;-66
2023/08/20 03:35:11;;;;;;;11.30;7.60;;;;;;;18.71;100.00;102046.31;5041319;28;20056;-66
2023/08/20 03:37:38;;;;;;;14.50;7.65;;;;;;;18.68;100.00;102047.50;5038456;28;20080;-65
2023/08/20 03:40:05;;;;;;;10.27;7.38;;;;;;;18.67;100.00;102037.03;5051209;28;20129;-66
2023/08/20 03:42:31;;;;;;;13.65;8.25;;;;;;;18.67;100.00;102043.19;5042048;28;20041;-66
2023/08/20 03:44:57;;;;;;;13.88;7.40;;;;;;;18.68;100.00;102044.00;5036044;28;20053;-66
2023/08/20 03:47:24;;;;;;;15.10;7.28;;;;;;;18.66;100.00;102051.31;5045415;28;20143;-66
2023/08/20 03:49:50;;;;;;;9.52;7.05;;;;;;;18.66;100.00;102048.66;5042279;28;20048;-66
2023/08/20 03:52:17;;;;;;;8.77;6.93;;;;;;;18.61;100.00;102054.50;5043567;28;20051;-66
2023/08/20 03:54:43;;;;;;;11.10;7.10;;;;;;;18.56;100.00;102046.19;5037843;28;20068;-65
2023/08/20 03:57:11;;;;;;;11.82;7.40;;;;;;;18.54;100.00;102054.34;5034214;28;20418;-66
2023/08/20 03:59:37;;;;;;;12.20;7.90;;;;;;;18.52;100.00;102055.50;5024680;28;20053;-66
2023/08/20 04:02:04;;;;;;;12.45;7.15;;;;;;;18.47;100.00;102068.47;5039444;28;20128;-66
2023/08/20 04:04:31;;;;;;;11.45;7.53;;;;;;;18.44;100.00;102066.97;5048834;28;20511;-66
2023/08/20 04:06:58;;;;;;;11.13;7.10;;;;;;;18.42;100.00;102076.94;5035421;28;20530;-66
2023/08/20 04:09:24;;;;;;;12.40;6.97;;;;;;;18.42;100.00;102076.09;5042219;28;20055;-66
2023/08/20 04:11:51;;;;;;;10.70;6.68;;;;;;;18.37;100.00;102076.63;5050130;28;20037;-66
2023/08/20 04:14:17;;;;;;;11.98;6.80;;;;;;;18.33;100.00;102078.78;5038528;28;20498;-66
2023/08/20 04:16:44;;;;;;;13.18;6.85;;;;;;;18.31;100.00;102085.25;5051653;28;20056;-66
2023/08/20 04:19:10;;;;;;;11.77;6.53;;;;;;;18.24;100.00;102078.94;5030687;28;20072;-66
2023/08/20 04:21:37;;;;;;;13.65;6.88;;;;;;;18.25;100.00;102092.06;5041000;28;21000;-66
2023/08/20 04:24:03;;;;;;;11.43;7.93;;;;;;;18.25;100.00;102086.75;5049535;28;20536;-66
2023/08/20 04:26:30;;;;;;;11.20;7.70;;;;;;;18.24;100.00;102086.91;5036488;28;20048;-65
2023/08/20 04:28:56;;;;;;;11.00;7.45;;;;;;;18.22;100.00;102088.91;5043760;28;20090;-66
2023/08/20 04:31:23;;;;;;;15.13;7.38;;;;;;;18.23;100.00;102088.75;5039015;28;20562;-66
2023/08/20 04:33:50;;;;;;;13.23;7.55;;;;;;;18.24;100.00;102086.91;5040682;28;20562;-66
2023/08/20 04:36:16;;;;;;;13.10;6.68;;;;;;;18.23;100.00;102080.78;5036855;28;20040;-66
2023/08/20 04:38:42;;;;;;;12.20;6.72;;;;;;;18.24;100.00;102084.25;5045405;28;20106;-66
2023/08/20 04:41:09;;;;;;;12.35;7.15;;;;;;;18.20;100.00;102085.59;5040115;28;20044;-65
2023/08/20 04:43:35;;;;;;;11.35;6.88;;;;;;;18.11;100.00;102080.28;5036408;28;20056;-64
2023/08/20 04:46:02;;;;;;;10.50;6.57;;;;;;;18.10;100.00;102086.56;5038101;28;20110;-65
2023/08/20 04:48:28;;;;;;;9.27;6.78;;;;;;;18.05;100.00;102090.72;5028509;28;20080;-65
2023/08/20 04:50:55;;;;;;;14.13;7.30;;;;;;;17.98;100.00;102091.38;5037674;28;20049;-65
2023/08/20 04:53:21;;;;;;;12.40;7.00;;;;;;;17.97;100.00;102087.06;5036610;28;20134;-65
2023/08/20 04:55:47;;;;;;;10.95;6.80;;;;;;;18.00;100.00;102093.88;5044662;28;20132;-65
2023/08/20 04:58:14;;;;;;;10.73;6.03;;;;;;;18.02;100.00;102088.41;5049538;28;20818;-65
2023/08/20 05:00:42;;;;;;;10.40;6.10;;;;;;;18.01;100.00;102100.81;5013277;28;20472;-64
2023/08/20 05:03:08;;;;;;;8.50;5.85;;;;;;;18.01;100.00;102094.69;5039980;28;20061;-65
2023/08/20 05:05:35;;;;;;;10.20;5.95;;;;;;;18.00;100.00;102093.88;5021990;28;20041;-64
2023/08/20 05:08:01;;;;;;;9.40;6.50;;;;;;;18.00;100.00;102103.66;5044250;28;20160;-65
2023/08/20 05:10:27;;;;;;;10.88;6.57;;;;;;;17.98;100.00;102109.13;5038172;28;20053;-65
2023/08/20 05:12:54;;;;;;;7.95;5.75;;;;;;;17.93;100.00;102104.28;5042461;28;20095;-65
2023/08/20 05:15:21;;;;;;;11.05;5.80;;;;;;;17.95;100.00;102110.31;5042118;28;20053;-65
2023/08/20 05:17:47;;;;;;;11.10;6.20;;;;;;;17.98;100.00;102120.56;5029533;28;20285;-64
2023/08/20 05:20:14;;;;;;;10.13;6.47;;;;;;;17.99;100.00;102121.41;5040376;28;20430;-65
2023/08/20 05:22:41;;;;;;;10.52;6.50;;;;;;;18.01;100.00;102119.41;5034537;28;20087;-66
2023/08/20 05:25:07;;;;;;;9.77;6.05;;;;;;;18.01;100.00;102119.41;5045347;28;20084;-65
2023/08/20 05:27:34;;;;;;;11.32;6.10;;;;;;;18.04;100.00;102124.41;5038462;28;20045;-65
2023/08/20 05:30:04;;;;;;;13.30;5.90;;;;;;;18.05;100.00;102122.56;5036555;28;20049;-65
2023/08/20 05:32:30;;;;;;;9.65;5.93;;;;;;;18.09;100.00;102124.75;5048404;28;20044;-65
2023/08/20 05:34:57;;;;;;;10.77;5.95;;;;;;;18.07;100.00;102116.13;5037434;28;20049;-65
2023/08/20 05:37:23;;;;;;;11.43;6.93;;;;;;;18.17;100.00;102129.25;5044821;28;20757;-65
2023/08/20 05:39:50;;;;;;;13.20;8.13;;;;;;;18.19;100.00;102127.25;5038239;28;20137;-66
2023/08/20 05:42:16;;;;;;;19.77;10.48;;;;;;;18.24;100.00;102129.41;5043125;28;20049;-65
2023/08/20 05:44:43;;;;;;;15.55;10.45;;;;;;;18.29;100.00;102127.91;5034758;28;20049;-65
2023/08/20 05:47:09;;;;;;;16.20;11.10;;;;;;;18.34;100.00;102130.88;5046443;28;20059;-65
2023/08/20 05:49:36;;;;;;;13.95;10.43;;;;;;;18.40;100.00;102132.03;5044359;28;20045;-65
2023/08/20 05:52:02;;;;;;;14.23;10.30;;;;;;;18.47;100.00;102137.53;5034740;28;20128;-65
2023/08/20 05:54:29;;;;;;;15.75;10.48;;;;;;;18.50;100.00;102129.22;5047341;28;20051;-65
2023/08/20 05:56:58;;;;;;;14.85;9.23;;;;;;;18.60;100.00;102137.03;5032972;28;20138;-65
2023/08/20 05:59:25;;;;;;;11.98;7.90;;;;;;;18.64;100.00;102148.97;5042524;28;20140;-65
2023/08/20 06:01:53;;;;;;;12.75;10.00;;;;;;;18.70;100.00;102140.31;5045697;28;20568;-65
2023/08/20 06:04:19;;;;;;;12.60;9.38;;;;;;;18.73;100.00;102142.66;5044735;28;20085;-65
2023/08/20 06:06:46;;;;;;;18.27;11.02;;;;;;;18.79;100.00;102141.97;5042982;28;20072;-65
2023/08/20 06:09:13;;;;;;;16.45;10.23;;;;;;;18.84;100.00;102141.53;5041005;28;20048;-65
2023/08/20 06:11:39;;;;;;;14.43;9.77;;;;;;;18.91;100.00;102142.50;5049286;28;20089;-65
2023/08/20 06:14:06;;;;;;;16.30;8.57;;;;;;;18.93;100.00;102144.00;5035952;28;20446;-65
2023/08/20 06:16:32;;;;;;;13.32;8.18;;;;;;;18.97;100.00;102131.19;5047884;28;20067;-65
2023/08/20 06:18:59;;;;;;;12.98;8.25;;;;;;;19.00;100.00;102132.69;5056439;28;20136;-65
2023/08/20 06:21:28;;;;;;;20.70;8.13;;;;;;;19.05;100.00;102136.50;5039795;28;20131;-65
2023/08/20 06:23:55;;;;;;;15.32;7.47;;;;;;;19.12;100.00;102139.28;5028252;28;20053;-65
2023/08/20 06:26:21;;;;;;;9.75;5.57;;;;;;;19.15;100.00;102134.47;5032913;28;20418;-65
2023/08/20 06:28:48;;;;;;;14.95;6.05;;;;;;;19.20;100.00;102135.78;5035748;28;20055;-65
2023/08/20 06:31:14;;;;;;;14.30;6.07;;;;;;;19.21;100.00;102132.09;5045220;28;20064;-65
2023/08/20 06:33:41;;;;;;;13.95;5.85;;;;;;;19.21;100.00;102130.28;5046411;28;20040;-65
2023/08/20 06:36:07;;;;;;;14.50;5.45;;;;;;;19.25;100.00;102136.94;5040326;28;20553;-65
2023/08/20 06:38:34;;;;;;;14.27;5.10;;;;;;;19.28;100.00;102135.75;5034371;28;20044;-65
2023/08/20 06:41:00;;;;;;;15.00;5.65;;;;;;;19.29;100.00;102132.09;5040481;28;20061;-65
2023/08/20 06:43:27;;;;;;;9.73;4.85;;;;;;;19.33;100.00;102134.22;5048100;28;20142;-65
2023/08/20 06:45:53;;;;;;;10.55;4.75;;;;;;;19.38;100.00;102138.19;5043876;28;20131;-65
2023/08/20 06:48:22;;;;;;;14.63;4.82;;;;;;;19.38;100.00;102141.69;5034667;28;20099;-65
2023/08/20 06:50:48;;;;;;;14.23;4.75;;;;;;;19.45;100.00;102134.69;5049926;28;20055;-65
2023/08/20 06:53:14;;;;;;;14.60;4.78;;;;;;;19.45;100.00;102132.03;5044549;28;20509;-64
2023/08/20 06:55:41;;;;;;;16.88;4.50;;;;;;;19.49;100.00;102143.16;5039894;28;20428;-66
2023/08/20 06:58:07;;;;;;;11.75;4.28;;;;;;;19.53;100.00;102145.28;5050804;28;20126;-65
2023/08/20 07:00:34;;;;;;;11.65;3.75;;;;;;;19.56;100.00;102134.31;5035166;28;20135;-65
2023/08/20 07:03:00;;;;;;;14.05;4.43;;;;;;;19.61;100.00;102135.63;5046163;28;20144;-65
2023/08/20 07:05:27;;;;;;;14.45;4.78;;;;;;;19.60;100.00;102137.44;5041318;28;20468;-65
2023/08/20 07:07:53;;;;;;;8.55;3.58;;;;;;;19.63;100.00;102137.09;5041590;28;20442;-65
2023/08/20 07:10:20;;;;;;;8.18;3.85;;;;;;;19.63;100.00;102142.41;5046915;28;20098;-65
2023/08/20 07:12:46;;;;;;;13.98;3.25;;;;;;;19.68;100.00;102137.41;5038723;28;20079;-65
2023/08/20 07:15:13;;;;;;;8.25;3.33;;;;;;;19.74;100.00;102144.72;5042043;28;20044;-65
2023/08/20 07:17:39;;;;;;;10.80;3.30;;;;;;;19.73;100.00;102136.91;5036583;28;20135;-65
2023/08/20 07:20:07;;;;;;;14.23;3.10;;;;;;;19.79;100.00;102133.53;5038987;28;20450;-65
2023/08/20 07:22:34;;;;;;;10.48;2.58;;;;;;;19.86;100.00;102137.16;5036288;28;20160;-65
2023/08/20 07:25:00;;;;;;;9.55;3.08;;;;;;;19.90;100.00;102138.47;5036415;28;20743;-65
2023/08/20 07:27:27;;;;;;;11.15;3.30;;;;;;;19.94;100.00;102138.94;5053270;28;20048;-65
2023/08/20 07:29:53;;;;;;;10.85;2.47;;;;;;;20.01;100.00;102144.38;5035574;28;20049;-65
2023/08/20 07:32:19;;;;;;;10.88;2.95;;;;;;;20.05;100.00;102149.19;5043174;28;20283;-65
2023/08/20 07:34:46;;;;;;;10.15;2.55;;;;;;;20.09;100.00;102149.66;5039843;28;20114;-64
2023/08/20 07:37:12;;;;;;;7.93;2.13;;;;;;;20.12;100.00;102141.31;5036725;28;20462;-65
2023/08/20 07:39:40;;;;;;;6.90;2.47;;;;;;;20.06;100.00;102144.69;5043344;28;20145;-64
2023/08/20 07:42:06;;;;;;;7.10;1.95;;;;;;;20.08;100.00;102140.84;5040689;28;20717;-65
2023/08/20 07:44:33;;;;;;;6.57;2.10;;;;;;;20.12;100.00;102152.78;5044484;28;20421;-65
2023/08/20 07:46:59;;;;;;;5.72;2.15;;;;;;;20.18;100.00;102158.44;5034330;28;20773;-64
2023/08/20 07:49:26;;;;;;;9.48;2.55;;;;;;;20.18;100.00;102166.41;5037731;28;20061;-65
2023/08/20 07:51:54;;;;;;;8.02;2.70;;;;;;;20.22;100.00;102159.72;5034313;28;20486;-65
2023/08/20 07:54:20;;;;;;;7.13;2.42;;;;;;;20.23;100.00;102150.72;5041288;28;20123;-65
2023/08/20 07:56:47;;;;;;;7.93;2.70;;;;;;;20.32;100.00;102153.13;5041052;28;20678;-65
2023/08/20 07:59:13;;;;;;;8.98;2.50;;;;;;;20.38;100.00;102159.59;5033019;28;20072;-65
2023/08/20 08:01:40;;;;;;;7.65;2.78;;;;;;;20.41;100.00;102161.91;5038548;28;20184;-65
2023/08/20 08:04:06;;;;;;;8.52;2.35;;;;;;;20.44;100.00;102163.38;5032101;28;20084;-65
2023/08/20 08:06:33;;;;;;;8.27;2.45;;;;;;;20.46;100.00;102174.69;5040137;28;20520;-65
2023/08/20 08:09:18;;;;;;;9.02;2.38;;;;;;;20.54;100.00;102174.63;5035597;28;20061;-65
2023/08/20 08:11:44;;;;;;;6.18;2.03;;;;;;;20.64;100.00;102182.41;5039940;28;20417;-65
2023/08/20 08:14:11;;;;;;;7.35;2.47;;;;;;;20.78;100.00;102170.09;5036412;28;20130;-65
2023/08/20 08:16:38;;;;;;;8.75;2.08;;;;;;;21.01;100.00;102175.38;5046009;28;20084;-65
2023/08/20 08:19:04;;;;;;;9.23;2.17;;;;;;;21.25;100.00;102176.97;5038189;28;20079;-65
2023/08/20 08:21:31;;;;;;;9.18;2.05;;;;;;;21.51;100.00;102165.84;5038514;28;20558;-65
2023/08/20 08:23:57;;;;;;;6.68;2.08;;;;;;;21.75;100.00;102166.53;5051912;28;20481;-65
2023/08/20 08:26:24;;;;;;;9.88;2.78;;;;;;;21.99;100.00;102166.16;5034683;28;20555;-65
2023/08/20 08:28:50;;;;;;;12.80;3.45;;;;;;;22.20;98.43;102169.88;5043840;28;20053;-65
2023/08/20 08:31:17;;;;;;;8.27;2.17;;;;;;;22.43;97.56;102172.38;5048121;28;20045;-65
2023/08/20 08:33:43;;;;;;;9.05;2.60;;;;;;;22.59;96.83;102173.97;5022261;28;20067;-65
2023/08/20 08:36:11;;;;;;;13.43;2.85;;;;;;;22.94;99.04;102168.66;5046636;28;20051;-65
2023/08/20 08:38:37;;;;;;;7.90;2.88;;;;;;;23.12;91.37;102173.53;5038099;28;20428;-66
2023/08/20 08:41:09;;;;;;;7.38;1.95;;;;;;;23.40;90.15;102176.13;5044784;28;20109;-65
2023/08/20 08:43:37;;;;;;;3.88;1.50;;;;;;;23.64;85.43;102183.66;5036763;28;20071;-65
2023/08/20 08:46:13;;;;;;;9.45;1.45;;;;;;;23.71;82.33;102191.72;5039648;28;20172;-65
2023/08/20 08:48:43;;;;;;;5.55;1.30;;;;;;;23.76;76.37;102193.81;5044482;28;20840;-66
2023/08/20 08:51:12;;;;;;;3.90;1.13;;;;;;;23.86;78.07;102188.91;5033903;28;20053;-66
2023/08/20 08:53:39;;;;;;;5.15;1.20;;;;;;;24.07;78.28;102198.63;5048069;28;20504;-67
2023/08/20 08:56:05;;;;;;;6.70;1.48;;;;;;;24.00;76.03;102198.63;5044295;28;20044;-65
2023/08/20 08:58:35;;;;;;;3.35;1.10;;;;;;;24.13;75.48;102188.97;5038029;28;20072;-66
2023/08/20 09:01:02;;;;;;;3.65;1.08;;;;;;;24.28;74.60;102186.94;5038711;28;20056;-66
2023/08/20 09:03:28;;;;;;;4.97;1.37;;;;;;;24.59;75.47;102188.22;5041858;28;20045;-66
2023/08/20 09:05:59;;;;;;;5.30;1.30;;;;;;;24.73;71.97;102189.84;5040867;28;20052;-66
2023/08/20 09:08:28;;;;;;;6.18;1.55;;;;;;;24.96;71.53;102185.91;5043826;28;20471;-65
2023/08/20 09:10:58;;;;;;;7.13;1.40;;;;;;;25.20;69.24;102197.81;5044883;28;20076;-65
2023/08/20 09:13:32;;;;;;;5.32;1.30;;;;;;;25.11;63.78;102199.94;5033806;28;20053;-66
2023/08/20 09:15:59;;;;;;;5.72;1.02;;;;;;;24.96;65.27;102199.34;5042141;28;20567;-65
2023/08/20 09:18:26;;;;;;;7.88;1.40;;;;;;;25.05;64.37;102204.28;5037486;28;20059;-65
2023/08/20 09:20:52;;;;;;;4.43;1.20;;;;;;;25.16;68.09;102196.59;5052132;28;20497;-65
2023/08/20 09:23:19;;;;;;;5.72;1.42;;;;;;;25.35;67.48;102190.38;5050023;28;20425;-66
2023/08/20 09:25:46;;;;;;;2.42;1.27;;;;;;;25.55;65.92;102195.66;5046774;28;20124;-65
2023/08/20 09:28:14;;;;;;;5.47;1.20;;;;;;;25.59;65.96;102196.06;5039866;28;20048;-66
2023/08/20 09:30:53;;;;;;;3.45;1.30;;;;;;;25.76;62.59;102191.03;5048865;28;20578;-66
2023/08/20 09:33:20;;;;;;;6.30;1.27;;;;;;;25.87;63.46;102186.84;5048099;28;20048;-66
2023/08/20 09:35:51;;;;;;;3.90;1.30;;;;;;;26.26;66.66;102182.28;5039904;28;20080;-66
2023/08/20 09:38:21;;;;;;;4.13;1.30;;;;;;;26.18;61.16;102181.47;5045034;28;20149;-66
2023/08/20 09:40:50;;;;;;;5.40;1.10;;;;;;;26.57;62.06;102187.59;5038146;28;20048;-66
2023/08/20 09:43:17;;;;;;;6.68;1.25;;;;;;;26.79;60.59;102184.53;5042043;28;20047;-66
2023/08/20 09:45:46;;;;;;;7.38;3.85;;;;;;;26.75;61.04;102186.03;5042432;28;20045;-65
2023/08/20 09:48:19;;;;;;;8.75;2.53;;;;;;;26.82;55.60;102189.47;5045939;28;20129;-65
2023/08/20 09:50:51;;;;;;;4.18;1.30;;;;;;;26.69;52.16;102189.59;5051084;28;20473;-66
2023/08/20 09:53:30;;;;;;;6.03;1.55;;;;;;;26.83;56.44;102186.56;5017764;28;20107;-66
2023/08/20 09:56:09;;;;;;;4.15;1.02;;;;;;;26.91;52.63;102185.44;5036895;28;20049;-66
2023/08/20 09:58:38;;;;;;;3.92;1.00;;;;;;;26.70;52.94;102194.78;5039660;28;20816;-66
2023/08/20 10:01:06;;;;;;;2.92;1.30;;;;;;;26.82;54.64;102189.47;5044398;28;20126;-66
2023/08/20 10:03:33;;;;;;;4.28;1.20;;;;;;;26.60;52.10;102197.16;5044216;28;20049;-66
2023/08/20 10:06:01;;;;;;;3.30;1.05;;;;;;;26.87;54.23;102191.50;5043125;28;20044;-66
2023/08/20 10:08:28;;;;;;;3.95;1.42;;;;;;;27.02;55.40;102195.47;5041618;28;20132;-66
2023/08/20 10:10:54;;;;;;;3.33;1.02;;;;;;;26.85;54.35;102193.59;5037063;28;20073;-66
2023/08/20 10:13:21;;;;;;;4.03;1.60;;;;;;;26.65;55.02;102199.16;5043417;28;20128;-65
2023/08/20 10:15:48;;;;;;;4.82;1.50;;;;;;;26.62;55.80;102198.56;5044874;28;20118;-66
2023/08/20 10:18:15;;;;;;;4.40;1.38;;;;;;;26.81;55.28;102198.59;5042665;28;20058;-66
2023/08/20 10:20:42;;;;;;;3.17;1.10;;;;;;;26.69;54.52;102203.88;5036723;28;20084;-66
2023/08/20 10:23:12;;;;;;;1.38;0.60;;;;;;;27.15;56.08;102204.47;5042512;28;20420;-66
2023/08/20 10:25:46;;;;;;;4.25;1.02;;;;;;;27.31;52.57;102195.00;5043587;28;20081;-66
2023/08/20 10:28:25;;;;;;;2.42;0.90;;;;;;;27.57;51.90;102196.53;5033526;28;20049;-66
2023/08/20 10:31:08;;;;;;;2.15;0.88;;;;;;;27.77;52.55;102199.78;5037677;28;20052;-65
2023/08/20 10:33:36;;;;;;;2.00;0.80;;;;;;;28.01;51.46;102191.78;5014792;28;20045;-65
2023/08/20 10:36:13;;;;;;;4.10;0.80;;;;;;;28.28;50.28;102202.19;5023857;28;20132;-65
2023/08/20 10:38:39;;;;;;;2.10;0.70;;;;;;;28.38;49.58;102195.19;5037474;28;20053;-65
2023/08/20 10:41:08;;;;;;;2.92;0.90;;;;;;;28.55;50.81;102200.72;5025453;28;20059;-65
2023/08/20 10:43:39;;;;;;;3.17;0.88;;;;;;;28.55;48.14;102202.63;5039203;28;20745;-66
2023/08/20 10:46:26;;;;;;;2.47;1.35;;;;;;;28.65;48.90;102202.03;5033298;28;20053;-65
2023/08/20 10:48:56;;;;;;;16.63;13.15;;;;;;;28.67;48.08;102200.72;5042043;28;20057;-65
2023/08/20 10:51:37;;;;;;;5.70;2.30;;;;;;;28.67;47.15;102197.22;5036919;28;20056;-65
2023/08/20 10:54:06;;;;;;;6.15;4.32;;;;;;;28.67;47.48;102198.03;5047627;28;20317;-65
2023/08/20 10:56:54;;;;;;;4.30;1.70;;;;;;;28.68;47.65;102206.97;5044584;28;20152;-65
2023/08/20 10:59:22;;;;;;;3.90;1.08;;;;;;;28.62;47.65;102199.78;5042714;28;20672;-65
2023/08/20 11:01:50;;;;;;;3.65;0.93;;;;;;;28.42;48.04;102200.09;5038019;28;20049;-65
2023/08/20 11:04:19;;;;;;;5.95;1.10;;;;;;;28.08;48.13;102199.81;5046544;28;20225;-65
2023/08/20 11:06:49;;;;;;;4.13;1.00;;;;;;;28.39;49.38;102193.31;5042817;28;20622;-65
2023/08/20 11:09:16;;;;;;;3.97;1.20;;;;;;;28.75;48.89;102194.97;5040971;28;20060;-65
2023/08/20 11:11:42;;;;;;;5.10;1.20;;;;;;;28.77;47.70;102190.16;5043510;28;20080;-65
2023/08/20 11:14:15;;;;;;;3.47;0.95;;;;;;;28.93;46.83;102196.75;5029004;28;20059;-65
2023/08/20 11:16:46;;;;;;;4.35;1.10;;;;;;;29.11;46.74;102205.75;5036737;28;20080;-65